Hardy, Mississippi
Current Conditions -  °F | °C
As of 12:53 PM on Friday 24 Oct 2014 (Local Time) from KGWO Reporting Station
Clear Clear  
Wind Chill: 70°   Ceiling: Unl
Heat Index: 70°   Visibility: 10mi
Dew Point: 44°   Wind: 5mph
Humidity: 39%   Direction: 330°NNW
Pressure: 30.12"   Gusts: NA
Location:  33.8096°N, 89.8042°W
Report Text: KGWO 241753Z AUTO 33004KT 10SM CLR 21/07 A3012 RMK AO2 SLP199 T02110067 10217 20056 58016 TSNO
Loading
Personal Weather Stations






























Interactive Weather Map
Tropical Storm Tracking
New forecast layout! Learn more

10-Day Weather Forecast

Advertisements
Track Severe Weather on mobile